createdAt,value
2018-04-10T00:00:38.622Z,81.90
2018-04-10T00:03:21.674Z,82.30
2018-04-10T00:05:51.124Z,82.40
2018-04-10T00:08:19.933Z,82.60
2018-04-10T00:10:49.705Z,82.60
2018-04-10T00:13:20.218Z,82.60
2018-04-10T00:15:49.701Z,82.10
2018-04-10T00:18:22.204Z,82.70
2018-04-10T00:20:51.707Z,82.90
2018-04-10T00:23:22.161Z,83.00
2018-04-10T00:25:51.616Z,83.10
2018-04-10T00:28:25.261Z,83.30
2018-04-10T00:30:54.757Z,83.30
2018-04-10T00:33:24.626Z,83.60
2018-04-10T00:35:54.110Z,83.60
2018-04-10T00:38:23.560Z,83.60
2018-04-10T00:40:53.025Z,83.50
2018-04-10T00:43:23.461Z,83.50
2018-04-10T00:45:52.929Z,83.50
2018-04-10T00:48:24.752Z,83.60
2018-04-10T00:50:54.225Z,83.60
2018-04-10T00:53:39.830Z,83.60
2018-04-10T00:56:09.280Z,83.80
2018-04-10T00:58:50.213Z,83.60
2018-04-10T01:01:19.658Z,83.70
2018-04-10T01:03:50.160Z,83.00
2018-04-10T01:06:19.365Z,83.50
2018-04-10T01:08:48.854Z,83.70
2018-04-10T01:11:18.309Z,83.00
2018-04-10T01:13:48.212Z,83.60
2018-04-10T01:16:17.681Z,83.60
2018-04-10T01:18:47.130Z,83.60
2018-04-10T01:21:16.385Z,84.20
2018-04-10T01:24:04.161Z,84.30
2018-04-10T01:26:33.635Z,84.30
2018-04-10T01:29:03.101Z,84.80
2018-04-10T01:31:32.549Z,84.70
2018-04-10T01:34:05.856Z,84.20
2018-04-10T01:36:35.313Z,84.10
2018-04-10T01:39:08.494Z,84.40
2018-04-10T01:41:37.986Z,83.90
2018-04-10T01:44:07.863Z,83.90
2018-04-10T01:46:37.093Z,83.90
2018-04-10T01:49:06.596Z,84.40
2018-04-10T01:51:36.067Z,84.50
2018-04-10T01:54:06.540Z,85.00
2018-04-10T01:56:36.020Z,84.20
2018-04-10T01:59:05.896Z,84.00
2018-04-10T02:01:35.365Z,84.00
2018-04-10T02:04:05.250Z,84.40
2018-04-10T02:06:34.708Z,84.40
2018-04-10T02:09:03.696Z,84.60
2018-04-10T02:11:33.259Z,84.60
2018-04-10T02:14:09.928Z,84.60
2018-04-10T02:16:39.548Z,83.80
2018-04-10T02:19:11.384Z,84.00
2018-04-10T02:21:40.592Z,84.00
2018-04-10T02:24:14.408Z,84.90
2018-04-10T02:26:43.898Z,84.70
2018-04-10T02:29:19.359Z,84.80
2018-04-10T02:31:48.850Z,84.70
2018-04-10T02:34:18.296Z,84.70
2018-04-10T02:36:47.772Z,84.90
2018-04-10T02:39:22.926Z,84.80
2018-04-10T02:41:52.133Z,85.30
2018-04-10T02:44:21.619Z,85.50
2018-04-10T02:46:51.081Z,85.70
2018-04-10T02:49:20.586Z,85.60
2018-04-10T02:51:50.040Z,85.70
2018-04-10T02:54:19.945Z,85.70
2018-04-10T02:56:49.428Z,85.60
2018-04-10T02:59:19.984Z,85.80
2018-04-10T03:01:49.440Z,85.80
2018-04-10T03:04:18.903Z,85.90
2018-04-10T03:06:48.378Z,86.00
2018-04-10T03:09:19.844Z,86.00
2018-04-10T03:11:49.444Z,86.10
2018-04-10T03:14:19.880Z,86.20
2018-04-10T03:16:49.073Z,86.10
2018-04-10T03:19:26.052Z,86.10
2018-04-10T03:21:55.897Z,86.10
2018-04-10T03:24:26.350Z,86.10
2018-04-10T03:26:55.804Z,86.40
2018-04-10T03:29:25.072Z,86.70
2018-04-10T03:31:54.589Z,86.80
2018-04-10T03:34:24.227Z,86.80
2018-04-10T03:36:53.686Z,86.40
2018-04-10T03:39:22.912Z,87.00
2018-04-10T03:41:52.360Z,86.70
2018-04-10T03:44:31.156Z,86.30
2018-04-10T03:47:00.650Z,86.30
2018-04-10T03:49:33.669Z,86.40
2018-04-10T03:52:03.166Z,86.60
2018-04-10T03:54:32.605Z,87.00
2018-04-10T03:57:03.025Z,86.60
2018-04-10T03:59:32.509Z,86.40
2018-04-10T04:02:09.622Z,86.60
2018-04-10T04:04:39.094Z,86.50
2018-04-10T04:07:09.528Z,86.50
2018-04-10T04:09:39.014Z,86.80
2018-04-10T04:12:16.076Z,86.80
2018-04-10T04:14:45.960Z,87.00
2018-04-10T04:17:28.553Z,87.00
2018-04-10T04:20:14.222Z,86.80
2018-04-10T04:22:43.417Z,87.00
2018-04-10T04:25:20.940Z,87.00
2018-04-10T04:27:50.814Z,86.70
2018-04-10T04:30:20.284Z,86.70
2018-04-10T04:32:50.170Z,86.90
2018-04-10T04:35:19.640Z,86.90
2018-04-10T04:37:49.686Z,86.80
2018-04-10T04:40:19.176Z,86.70
2018-04-10T04:42:55.525Z,86.60
2018-04-10T04:45:24.765Z,87.20
2018-04-10T04:47:54.239Z,87.00
2018-04-10T04:50:23.716Z,87.20
2018-04-10T04:52:56.900Z,87.00
2018-04-10T04:55:26.348Z,87.00
2018-04-10T04:57:59.712Z,87.50
2018-04-10T05:00:29.165Z,87.50
2018-04-10T05:02:58.644Z,87.40
2018-04-10T05:05:28.125Z,87.60
2018-04-10T05:07:58.005Z,87.50
2018-04-10T05:10:37.488Z,87.50
2018-04-10T05:13:07.368Z,87.40
2018-04-10T05:15:40.058Z,87.30
2018-04-10T05:18:09.572Z,87.70
2018-04-10T05:20:51.138Z,87.80
2018-04-10T05:23:20.617Z,87.90
2018-04-10T05:25:52.087Z,88.10
2018-04-10T05:28:21.561Z,88.30
2018-04-10T05:31:01.213Z,87.90
2018-04-10T05:33:31.080Z,88.10
2018-04-10T05:36:04.257Z,88.10
2018-04-10T05:38:33.717Z,88.00
2018-04-10T05:41:04.163Z,88.00
2018-04-10T05:43:33.625Z,88.00
2018-04-10T05:46:06.638Z,87.60
2018-04-10T05:48:36.128Z,87.60
2018-04-10T05:51:05.281Z,88.10
2018-04-10T05:53:34.748Z,88.30
2018-04-10T05:56:26.425Z,88.00
2018-04-10T05:58:55.903Z,87.80
2018-04-10T06:01:30.639Z,87.70
2018-04-10T06:04:00.139Z,87.70
2018-04-10T06:06:33.147Z,87.70
2018-04-10T06:09:02.612Z,87.50
2018-04-10T06:11:32.560Z,87.40
2018-04-10T06:14:01.761Z,87.30
2018-04-10T06:16:31.621Z,87.00
2018-04-10T06:19:01.096Z,87.10
2018-04-10T06:24:30.902Z,85.40
2018-04-10T06:27:00.463Z,85.30
2018-04-10T06:29:40.130Z,86.90
2018-04-10T06:32:10.276Z,86.80
2018-04-10T06:34:40.865Z,86.70
2018-04-10T06:37:10.317Z,86.40
2018-04-10T06:39:41.105Z,85.90
2018-04-10T06:42:10.284Z,86.00
2018-04-10T06:44:43.239Z,85.30
2018-04-10T06:47:12.741Z,85.30
2018-04-10T06:49:43.682Z,84.20
2018-04-10T06:52:13.551Z,83.90
2018-04-10T06:54:43.011Z,83.90
2018-04-10T06:57:12.898Z,82.20
2018-04-10T06:59:45.792Z,82.30
2018-04-10T07:02:15.110Z,84.40
2018-04-10T07:04:44.557Z,82.10
2018-04-10T07:07:14.041Z,83.40
2018-04-10T07:09:43.553Z,83.80
2018-04-10T07:12:13.013Z,82.70
2018-04-10T07:14:44.145Z,83.90
2018-04-10T07:17:13.607Z,84.20
2018-04-10T07:19:43.110Z,83.20
2018-04-10T07:22:12.585Z,81.70
2018-04-10T07:24:46.531Z,82.90
2018-04-10T07:27:16.633Z,82.40
2018-04-10T07:29:55.929Z,78.10
2018-04-10T07:32:25.431Z,78.10
2018-04-10T07:35:03.407Z,81.10
2018-04-10T07:37:33.309Z,80.00
2018-04-10T07:40:02.816Z,79.90
2018-04-10T07:42:33.077Z,80.30
2018-04-10T07:45:15.442Z,78.70
2018-04-10T07:47:44.927Z,79.40
2018-04-10T07:50:14.813Z,76.20
2018-04-10T07:52:44.272Z,76.30
2018-04-10T07:55:13.933Z,75.60
2018-04-10T07:57:43.413Z,75.50
2018-04-10T08:00:13.300Z,76.00
2018-04-10T08:02:42.763Z,76.00
2018-04-10T08:05:13.620Z,75.30
2018-04-10T08:07:43.480Z,74.80
2018-04-10T08:10:20.752Z,74.80
2018-04-10T08:12:50.632Z,73.90
2018-04-10T08:15:21.104Z,74.10
2018-04-10T08:17:50.565Z,74.30
2018-04-10T08:20:23.074Z,73.60
2018-04-10T08:22:52.586Z,74.00
2018-04-10T08:25:22.043Z,73.80
2018-04-10T08:27:51.718Z,73.60
2018-04-10T08:30:21.187Z,74.20
2018-04-10T08:32:50.697Z,73.30
2018-04-10T08:35:23.291Z,73.40
2018-04-10T08:37:56.593Z,72.80
2018-04-10T08:40:26.272Z,72.50
2018-04-10T08:42:56.189Z,71.70
2018-04-10T08:45:25.447Z,71.70
2018-04-10T08:47:54.885Z,71.10
2018-04-10T08:50:24.616Z,70.90
2018-04-10T08:52:54.065Z,70.20
2018-04-10T08:55:25.513Z,70.40
2018-04-10T08:57:54.969Z,70.30
2018-04-10T09:00:24.598Z,70.10
2018-04-10T09:02:54.515Z,70.00
2018-04-10T09:05:24.362Z,69.60
2018-04-10T09:07:53.833Z,69.50
2018-04-10T09:10:26.425Z,66.10
2018-04-10T09:12:55.878Z,67.80
2018-04-10T09:15:25.743Z,67.20
2018-04-10T09:17:55.227Z,67.20
2018-04-10T09:20:24.682Z,66.80
2018-04-10T09:22:54.140Z,65.10
2018-04-10T09:25:23.810Z,65.10
2018-04-10T09:27:54.240Z,63.90
2018-04-10T09:30:24.080Z,64.40
2018-04-10T09:32:54.149Z,64.70
2018-04-10T09:35:23.367Z,64.70
2018-04-10T09:37:52.830Z,65.10
2018-04-10T09:40:22.303Z,65.10
2018-04-10T09:42:51.780Z,64.00
2018-04-10T09:45:21.612Z,63.50
2018-04-10T09:47:51.528Z,63.60
2018-04-10T09:50:20.980Z,63.60
2018-04-10T09:52:50.432Z,64.40
2018-04-10T09:55:19.881Z,65.00
2018-04-10T09:57:50.604Z,66.10
2018-04-10T10:00:25.408Z,64.10
2018-04-10T10:02:55.898Z,65.60
2018-04-10T10:05:25.652Z,64.90
2018-04-10T10:07:55.177Z,64.70
2018-04-10T10:10:27.636Z,64.50
2018-04-10T10:12:57.188Z,65.10
2018-04-10T10:15:26.975Z,63.10
2018-04-10T10:17:56.552Z,63.20
2018-04-10T10:20:26.390Z,63.00
2018-04-10T10:22:55.964Z,63.00
2018-04-10T10:25:28.944Z,63.90
2018-04-10T10:27:58.409Z,64.30
2018-04-10T10:30:27.970Z,63.90
2018-04-10T10:32:57.434Z,63.50
2018-04-10T10:35:27.056Z,63.80
2018-04-10T10:37:56.532Z,64.60
2018-04-10T10:40:25.986Z,64.00
2018-04-10T10:42:55.457Z,63.80
2018-04-10T10:45:29.173Z,64.80
2018-04-10T10:47:59.030Z,64.60
2018-04-10T10:50:30.401Z,64.60
2018-04-10T10:52:59.853Z,64.90
2018-04-10T10:55:29.328Z,65.50
2018-04-10T10:57:58.760Z,64.50
2018-04-10T11:00:28.243Z,64.70
2018-04-10T11:02:57.688Z,66.20
2018-04-10T11:05:27.146Z,63.40
2018-04-10T11:07:56.606Z,64.50
2018-04-10T11:10:26.151Z,64.70
2018-04-10T11:13:00.021Z,63.80
2018-04-10T11:15:29.257Z,63.80
2018-04-10T11:18:03.043Z,63.70
2018-04-10T11:23:12.220Z,64.70
2018-04-10T11:25:43.045Z,62.10
2018-04-10T11:28:13.360Z,62.20
2018-04-10T11:30:43.316Z,62.80
2018-04-10T11:33:14.119Z,63.10
2018-04-10T11:35:44.566Z,63.60
2018-04-10T11:38:19.995Z,62.00
2018-04-10T11:40:50.270Z,61.70
2018-04-10T11:43:19.596Z,61.40
2018-04-10T11:45:52.927Z,60.80
2018-04-10T11:48:22.579Z,59.70
2018-04-10T11:50:52.285Z,61.90
2018-04-10T11:53:22.430Z,61.90
2018-04-10T11:55:52.249Z,60.90
2018-04-10T11:58:22.846Z,58.90
2018-04-10T12:00:53.215Z,58.80
2018-04-10T12:03:23.113Z,59.80
2018-04-10T12:05:52.720Z,59.20
2018-04-10T12:08:22.675Z,60.70
2018-04-10T12:10:52.411Z,60.70
2018-04-10T12:13:22.069Z,58.70
2018-04-10T12:15:51.715Z,58.60
2018-04-10T12:18:23.492Z,58.70
2018-04-10T12:20:53.091Z,58.90
2018-04-10T12:23:22.830Z,57.30
2018-04-10T12:25:52.356Z,56.70
2018-04-10T12:28:22.032Z,56.70
2018-04-10T12:30:51.725Z,56.60
2018-04-10T12:33:21.286Z,58.10
2018-04-10T12:35:50.878Z,57.50
2018-04-10T12:38:20.199Z,56.60
2018-04-10T12:40:50.061Z,59.20
2018-04-10T12:43:19.670Z,56.70
2018-04-10T12:45:49.364Z,55.80
2018-04-10T12:48:18.756Z,54.20
2018-04-10T12:50:48.536Z,57.10
2018-04-10T12:53:17.920Z,55.20
2018-04-10T12:55:47.538Z,55.80
2018-04-10T12:58:17.066Z,54.70
2018-04-10T13:00:46.625Z,54.30
2018-04-10T13:03:16.440Z,55.00
2018-04-10T13:05:46.100Z,55.50
2018-04-10T13:08:15.750Z,55.20
2018-04-10T13:10:46.336Z,55.40
2018-04-10T13:13:15.891Z,54.50
2018-04-10T13:15:45.184Z,55.20
2018-04-10T13:18:14.608Z,55.00
2018-04-10T13:20:44.237Z,55.10
2018-04-10T13:23:27.628Z,55.10
2018-04-10T13:26:01.131Z,55.70
2018-04-10T13:28:33.011Z,54.90
2018-04-10T13:31:02.751Z,55.80
2018-04-10T13:33:33.944Z,54.80
2018-04-10T13:36:06.431Z,52.10
2018-04-10T13:38:40.479Z,54.30
2018-04-10T13:41:09.947Z,54.00
2018-04-10T13:46:16.874Z,51.00
2018-04-10T13:48:53.253Z,51.50
2018-04-10T13:51:26.624Z,51.60
2018-04-10T13:54:01.123Z,51.00
2018-04-10T13:56:37.531Z,50.80
2018-04-10T13:59:07.854Z,50.70
2018-04-10T14:01:40.335Z,50.70
2018-04-10T14:04:11.994Z,50.00
2018-04-10T14:06:50.724Z,50.80
2018-04-10T14:14:51.734Z,53.90
2018-04-10T14:17:23.928Z,54.90
2018-04-10T14:19:57.997Z,56.10
2018-04-10T14:31:57.527Z,54.20
2018-04-10T14:34:27.160Z,57.80
2018-04-10T14:37:00.935Z,57.80
2018-04-10T14:42:14.732Z,55.10
2018-04-10T14:44:50.892Z,54.30
2018-04-10T14:47:20.775Z,55.10
2018-04-10T14:49:59.992Z,54.70
2018-04-10T14:52:30.021Z,57.80
2018-04-10T14:55:01.201Z,54.80
2018-04-10T14:57:30.470Z,54.10
2018-04-10T14:59:59.759Z,57.40
2018-04-10T15:02:29.048Z,56.90
2018-04-10T15:05:00.453Z,56.40
2018-04-10T15:07:29.937Z,57.20
2018-04-10T15:10:00.116Z,56.70
2018-04-10T15:12:29.301Z,55.20
2018-04-10T15:15:06.339Z,56.00
2018-04-10T15:17:36.221Z,55.80
2018-04-10T15:20:06.665Z,55.80
2018-04-10T15:22:35.911Z,56.10
2018-04-10T15:25:10.551Z,57.80
2018-04-10T15:27:39.799Z,56.20
2018-04-10T15:30:15.218Z,57.20
2018-04-10T15:32:46.619Z,57.20
2018-04-10T15:35:16.290Z,56.90
2018-04-10T15:37:46.847Z,56.20
2018-04-10T15:40:16.452Z,57.00
2018-04-10T15:42:46.877Z,56.70
2018-04-10T15:45:16.351Z,56.30
2018-04-10T15:48:08.129Z,58.20
2018-04-10T15:53:22.639Z,55.90
2018-04-10T15:55:53.593Z,55.80
2018-04-10T15:58:34.291Z,56.40
2018-04-10T16:04:19.183Z,56.70
2018-04-10T16:07:04.923Z,57.00
2018-04-10T16:09:35.540Z,58.50
2018-04-10T16:12:05.429Z,57.60
2018-04-10T16:14:36.709Z,56.30
2018-04-10T16:17:12.474Z,57.80
2018-04-10T16:19:45.385Z,56.70
2018-04-10T16:22:17.260Z,58.00
2018-04-10T16:24:53.197Z,57.10
2018-04-10T16:27:23.833Z,56.50
2018-04-10T16:29:54.425Z,57.30
2018-04-10T16:32:24.048Z,57.30
2018-04-10T16:34:53.842Z,57.00
2018-04-10T16:37:23.586Z,57.10
2018-04-10T16:39:53.272Z,59.10
2018-04-10T16:42:24.993Z,59.30
2018-04-10T16:44:58.418Z,58.60
2018-04-10T16:47:28.171Z,58.60
2018-04-10T16:50:05.266Z,59.90
2018-04-10T16:52:35.892Z,59.90
2018-04-10T16:55:07.753Z,60.60
2018-04-10T16:57:37.534Z,61.40
2018-04-10T17:00:07.108Z,62.50
2018-04-10T17:02:37.505Z,62.90
2018-04-10T17:05:10.360Z,65.00
2018-04-10T17:07:43.892Z,68.20
2018-04-10T17:10:17.012Z,68.10
2018-04-10T17:12:49.743Z,69.80
2018-04-10T17:15:24.330Z,70.80
2018-04-10T17:17:55.261Z,69.90
2018-04-10T17:20:36.091Z,70.40
2018-04-10T17:23:52.736Z,70.70
2018-04-10T17:28:58.714Z,72.90
2018-04-10T17:31:28.297Z,75.60
2018-04-10T17:33:59.009Z,73.50
2018-04-10T17:36:34.637Z,76.10
2018-04-10T17:39:03.768Z,76.30
2018-04-10T17:41:33.761Z,76.10
2018-04-10T17:44:04.115Z,74.20
2018-04-10T17:46:39.214Z,74.20
2018-04-10T17:49:10.328Z,72.50
2018-04-10T17:51:40.733Z,70.80
2018-04-10T17:54:16.336Z,71.00
2018-04-10T17:56:46.424Z,72.20
2018-04-10T17:59:16.041Z,72.20
2018-04-10T18:01:47.558Z,70.30
2018-04-10T18:04:18.586Z,70.30
2018-04-10T18:06:49.034Z,70.70
2018-04-10T18:09:22.555Z,71.10
2018-04-10T18:11:53.420Z,71.10
2018-04-10T18:19:46.941Z,71.60
2018-04-10T18:22:16.799Z,71.80
2018-04-10T18:24:46.663Z,72.30
2018-04-10T18:27:16.518Z,71.80
2018-04-10T18:32:23.304Z,73.20
2018-04-10T18:34:53.656Z,73.00
2018-04-10T18:37:23.394Z,72.40
2018-04-10T18:39:53.827Z,75.00
2018-04-10T18:45:04.069Z,78.90
2018-04-10T18:50:52.856Z,81.50
2018-04-10T18:53:24.427Z,82.80
2018-04-10T19:00:08.529Z,82.80
2018-04-10T19:02:40.218Z,83.10
2018-04-10T19:05:10.957Z,77.70
2018-04-10T19:10:18.285Z,78.10
2018-04-10T19:12:48.157Z,80.40
2018-04-10T19:15:31.992Z,82.50
2018-04-10T19:18:02.665Z,83.30
2018-04-10T19:20:33.864Z,83.90
2018-04-10T19:23:04.776Z,85.00
2018-04-10T19:25:49.326Z,86.60
2018-04-10T19:28:19.478Z,87.20
2018-04-10T19:30:49.508Z,87.20
2018-04-10T19:33:37.043Z,87.60
2018-04-10T19:36:07.381Z,87.60
2018-04-10T19:38:41.275Z,87.90
2018-04-10T19:41:11.057Z,87.90
2018-04-10T19:43:41.599Z,88.70
2018-04-10T19:46:11.081Z,88.70
2018-04-10T19:48:45.714Z,88.20
2018-04-10T19:51:16.232Z,88.20
2018-04-10T19:53:46.212Z,87.60
2018-04-10T19:56:16.010Z,85.30
2018-04-10T19:58:46.555Z,85.30
2018-04-10T20:01:16.636Z,83.20
2018-04-10T20:03:56.228Z,83.90
2018-04-10T20:06:28.088Z,82.40
2018-04-10T20:11:41.846Z,84.60
2018-04-10T20:14:18.364Z,83.80
2018-04-10T20:16:52.164Z,83.80
2018-04-10T20:19:22.040Z,85.00
2018-04-10T20:21:53.804Z,85.80
2018-04-10T20:24:24.428Z,82.00
2018-04-10T20:26:54.086Z,82.00
2018-04-10T20:29:25.329Z,85.40
2018-04-10T20:32:00.633Z,85.50
2018-04-10T20:34:31.408Z,85.40
2018-04-10T20:37:00.850Z,86.50
2018-04-10T20:39:30.528Z,86.40
2018-04-10T20:42:01.337Z,87.20
2018-04-10T20:44:30.984Z,87.00
2018-04-10T20:47:01.260Z,88.00
2018-04-10T20:54:58.383Z,85.80
2018-04-10T20:57:28.076Z,84.40
2018-04-10T20:59:58.533Z,84.30
2018-04-10T21:02:29.642Z,84.70
2018-04-10T21:05:00.862Z,86.80
2018-04-10T21:07:33.065Z,87.30
2018-04-10T21:10:02.599Z,87.90
2018-04-10T21:12:35.144Z,88.30
2018-04-10T21:15:04.137Z,88.70
2018-04-10T21:20:45.845Z,89.20
2018-04-10T21:29:25.163Z,88.00
2018-04-10T21:31:55.039Z,88.10
2018-04-10T21:34:24.530Z,88.10
2018-04-10T21:36:53.795Z,89.10
2018-04-10T21:39:23.305Z,89.10
2018-04-10T21:41:52.489Z,89.50
2018-04-10T21:44:22.108Z,89.90
2018-04-10T21:46:51.815Z,89.50
2018-04-10T21:49:21.506Z,89.70
2018-04-10T21:51:51.166Z,89.30
2018-04-10T21:54:20.710Z,89.90
2018-04-10T21:56:50.028Z,89.70
2018-04-10T21:59:20.480Z,88.30
2018-04-10T22:01:50.012Z,88.40
2018-04-10T22:04:19.261Z,88.80
2018-04-10T22:06:48.820Z,88.20
2018-04-10T22:09:18.863Z,87.30
2018-04-10T22:11:48.437Z,87.40
2018-04-10T22:14:17.952Z,86.60
2018-04-10T22:16:48.159Z,85.60
2018-04-10T22:19:17.738Z,84.80
2018-04-10T22:21:47.727Z,84.30
2018-04-10T22:24:17.372Z,84.30
2018-04-10T22:26:47.051Z,84.30
2018-04-10T22:29:16.596Z,84.70
2018-04-10T22:31:46.142Z,85.10
2018-04-10T22:34:15.710Z,85.20
2018-04-10T22:36:45.248Z,85.20
2018-04-10T22:39:14.575Z,85.40
2018-04-10T22:41:44.321Z,85.20
2018-04-10T22:44:13.855Z,84.20
2018-04-10T22:46:43.422Z,84.30
2018-04-10T22:49:12.679Z,84.30
2018-04-10T22:51:42.424Z,85.40
2018-04-10T22:54:11.836Z,85.30
2018-04-10T22:56:41.199Z,85.30
2018-04-10T22:59:10.956Z,86.00
2018-04-10T23:01:40.458Z,86.00
2018-04-10T23:04:09.977Z,86.00
2018-04-10T23:06:39.280Z,86.30
2018-04-10T23:09:08.820Z,85.70
2018-04-10T23:11:38.229Z,86.50
2018-04-10T23:14:07.827Z,86.90
2018-04-10T23:16:37.361Z,86.70
2018-04-10T23:19:07.392Z,88.50
2018-04-10T23:21:37.397Z,88.30
2018-04-10T23:24:07.049Z,88.30
2018-04-10T23:26:36.440Z,87.90
2018-04-10T23:29:06.101Z,87.50
2018-04-10T23:31:35.589Z,88.10
2018-04-10T23:34:04.894Z,88.30
2018-04-10T23:36:34.269Z,88.40
2018-04-10T23:39:03.658Z,88.20
2018-04-10T23:41:32.708Z,88.20
2018-04-10T23:44:02.104Z,88.40
2018-04-10T23:46:31.644Z,87.80
2018-04-10T23:49:01.169Z,88.50
2018-04-10T23:51:31.154Z,88.40
2018-04-10T23:54:00.769Z,88.40
2018-04-10T23:56:30.309Z,88.60
2018-04-10T23:58:59.861Z,89.00
